createdAt,value
2023-04-02T00:00:09.794Z,101342.97
2023-04-02T00:03:01.461Z,101336.91
2023-04-02T00:05:50.684Z,101343.28
2023-04-02T00:08:24.330Z,101345.09
2023-04-02T00:10:57.964Z,101350.75
2023-04-02T00:13:29.063Z,101350.88
2023-04-02T00:15:57.990Z,101351.59
2023-04-02T00:18:26.312Z,101355.56
2023-04-02T00:21:12.446Z,101367.41
2023-04-02T00:23:41.943Z,101363.03
2023-04-02T00:26:40.052Z,101367.16
2023-04-02T00:29:07.621Z,101379.56
2023-04-02T00:31:37.357Z,101384.09
2023-04-02T00:34:04.814Z,101390.41
2023-04-02T00:36:36.525Z,101380.84
2023-04-02T00:39:07.512Z,101403.28
2023-04-02T00:41:38.808Z,101406.94
2023-04-02T00:44:06.005Z,101401.72
2023-04-02T00:46:47.067Z,101409.03
2023-04-02T00:49:31.592Z,101420.91
2023-04-02T00:52:02.058Z,101428.81
2023-04-02T00:54:32.992Z,101421.88
2023-04-02T00:56:59.937Z,101430.06
2023-04-02T00:59:33.432Z,101440.81
2023-04-02T01:02:14.978Z,101431.19
2023-04-02T01:04:41.881Z,101434.88
2023-04-02T01:07:12.218Z,101445.59
2023-04-02T01:10:18.201Z,101445.00
2023-04-02T01:12:55.727Z,101454.91
2023-04-02T01:15:33.518Z,101449.69
2023-04-02T01:18:13.841Z,101452.38
2023-04-02T01:20:49.477Z,101478.44
2023-04-02T01:23:29.990Z,101469.72
2023-04-02T01:26:22.425Z,101474.50
2023-04-02T01:29:02.899Z,101476.31
2023-04-02T01:31:31.127Z,101480.81
2023-04-02T01:33:57.804Z,101494.34
2023-04-02T01:36:49.632Z,101493.66
2023-04-02T01:39:31.119Z,101499.13
2023-04-02T01:42:14.279Z,101501.09
2023-04-02T01:44:50.903Z,101509.28
2023-04-02T01:47:21.931Z,101517.34
2023-04-02T01:49:48.683Z,101513.78
2023-04-02T01:52:35.381Z,101519.28
2023-04-02T01:55:02.434Z,101519.44
2023-04-02T01:57:29.547Z,101526.75
2023-04-02T01:59:56.373Z,101531.25
2023-04-02T02:02:23.308Z,101528.72
2023-04-02T02:04:49.988Z,101542.13
2023-04-02T02:07:20.553Z,101541.41
2023-04-02T02:09:48.878Z,101548.59
2023-04-02T02:12:16.168Z,101554.94
2023-04-02T02:14:50.821Z,101557.75
2023-04-02T02:17:24.173Z,101558.72
2023-04-02T02:19:55.216Z,101565.06
2023-04-02T02:22:28.524Z,101567.75
2023-04-02T02:24:57.488Z,101568.75
2023-04-02T02:27:24.004Z,101578.59
2023-04-02T02:30:02.221Z,101582.25
2023-04-02T02:32:33.433Z,101586.78
2023-04-02T02:35:19.216Z,101589.59
2023-04-02T02:37:50.886Z,101593.13
2023-04-02T02:40:26.766Z,101596.78
2023-04-02T02:43:00.167Z,101602.25
2023-04-02T02:45:33.152Z,101605.94
2023-04-02T02:48:02.234Z,101609.59
2023-04-02T02:50:31.654Z,101625.69
2023-04-02T02:53:00.409Z,101622.25
2023-04-02T02:55:34.441Z,101625.94
2023-04-02T02:58:20.055Z,101625.34
2023-04-02T03:00:47.883Z,101632.41
2023-04-02T03:03:19.254Z,101632.53
2023-04-02T03:05:52.348Z,101645.19
2023-04-02T03:08:55.790Z,101654.47
2023-04-02T03:12:01.722Z,101660.56
2023-04-02T03:14:41.575Z,101668.72
2023-04-02T03:17:19.131Z,101678.59
2023-04-02T03:20:14.766Z,101674.34
2023-04-02T03:22:53.053Z,101682.38
2023-04-02T03:26:01.842Z,101689.59
2023-04-02T03:28:33.130Z,101692.25
2023-04-02T03:31:15.973Z,101701.38
2023-04-02T03:33:47.909Z,101705.31
2023-04-02T03:36:28.560Z,101710.41
2023-04-02T03:39:16.354Z,101723.78
2023-04-02T03:41:56.932Z,101721.03
2023-04-02T03:44:49.624Z,101730.00
2023-04-02T03:47:33.917Z,101735.44
2023-04-02T03:50:11.671Z,101742.84
2023-04-02T03:52:39.095Z,101752.25
2023-04-02T03:55:20.330Z,101758.91
2023-04-02T03:58:00.221Z,101756.69
2023-04-02T04:00:38.283Z,101758.25
2023-04-02T04:03:26.344Z,101759.81
2023-04-02T04:06:00.009Z,101773.81
2023-04-02T04:08:46.858Z,101773.72
2023-04-02T04:11:22.725Z,101777.09
2023-04-02T04:14:00.994Z,101786.88
2023-04-02T04:16:35.950Z,101791.25
2023-04-02T04:19:05.045Z,101800.97
2023-04-02T04:21:37.619Z,101806.34
2023-04-02T04:24:07.440Z,101812.69
2023-04-02T04:26:44.611Z,101810.03
2023-04-02T04:29:27.322Z,101815.38
2023-04-02T04:31:55.673Z,101824.41
2023-04-02T04:34:46.837Z,101830.03
2023-04-02T04:37:43.154Z,101833.34
2023-04-02T04:40:18.844Z,101848.13
2023-04-02T04:42:48.411Z,101845.13
2023-04-02T04:45:40.892Z,101851.22
2023-04-02T04:48:17.740Z,101854.13
2023-04-02T04:51:01.196Z,101861.06
2023-04-02T04:53:29.584Z,101866.91
2023-04-02T04:56:12.546Z,101870.94
2023-04-02T04:58:47.596Z,101877.63
2023-04-02T05:01:24.181Z,101887.09
2023-04-02T05:04:03.745Z,101886.84
2023-04-02T05:06:45.002Z,101891.13
2023-04-02T05:09:24.674Z,101899.88
2023-04-02T05:12:26.021Z,101911.50
2023-04-02T05:15:32.745Z,101909.66
2023-04-02T05:18:16.361Z,101913.19
2023-04-02T05:20:56.791Z,101930.97
2023-04-02T05:23:28.182Z,101927.31
2023-04-02T05:26:11.355Z,101935.34
2023-04-02T05:28:47.576Z,101938.03
2023-04-02T05:31:19.982Z,101951.47
2023-04-02T05:33:49.066Z,101959.63
2023-04-02T05:36:22.418Z,101963.41
2023-04-02T05:38:51.250Z,101962.72
2023-04-02T05:41:39.284Z,101970.00
2023-04-02T05:44:07.684Z,101981.88
2023-04-02T05:46:41.185Z,102001.88
2023-04-02T05:49:13.908Z,102005.03
2023-04-02T05:51:45.779Z,102012.66
2023-04-02T05:54:31.123Z,102025.13
2023-04-02T05:57:04.670Z,102031.94
2023-04-02T05:59:37.756Z,102031.69
2023-04-02T06:02:22.357Z,102038.13
2023-04-02T06:05:01.228Z,102048.25
2023-04-02T06:07:54.403Z,102048.25
2023-04-02T06:10:28.712Z,102059.75
2023-04-02T06:13:02.281Z,102066.09
2023-04-02T06:15:30.730Z,102061.56
2023-04-02T06:18:19.907Z,102067.78
2023-04-02T06:20:47.336Z,102083.75
2023-04-02T06:23:21.119Z,102083.81
2023-04-02T06:25:58.206Z,102089.31
2023-04-02T06:28:30.706Z,102091.97
2023-04-02T06:31:01.422Z,102096.56
2023-04-02T06:33:28.116Z,102096.81
2023-04-02T06:35:55.378Z,102115.00
2023-04-02T06:38:29.625Z,102115.19
2023-04-02T06:41:01.192Z,102121.88
2023-04-02T06:44:16.341Z,102128.31
2023-04-02T06:46:49.925Z,102142.94
2023-04-02T06:49:36.365Z,102144.41
2023-04-02T06:52:06.475Z,102154.91
2023-04-02T06:54:33.049Z,102158.28
2023-04-02T06:56:59.609Z,102153.19
2023-04-02T06:59:26.446Z,102160.53
2023-04-02T07:01:54.749Z,102163.75
2023-04-02T07:04:22.251Z,102164.38
2023-04-02T07:06:49.095Z,102161.34
2023-04-02T07:09:15.920Z,102173.47
2023-04-02T07:11:42.515Z,102184.84
2023-04-02T07:14:13.092Z,102186.16
2023-04-02T07:16:41.362Z,102203.47
2023-04-02T07:19:16.282Z,102204.97
2023-04-02T07:21:42.776Z,102213.38
2023-04-02T07:24:09.276Z,102212.91
2023-04-02T07:26:35.847Z,102212.28
2023-04-02T07:29:02.408Z,102217.81
2023-04-02T07:31:29.400Z,102218.88
2023-04-02T07:34:00.017Z,102215.59
2023-04-02T07:36:28.828Z,102220.25
2023-04-02T07:38:56.094Z,102234.75
2023-04-02T07:41:23.277Z,102239.50
2023-04-02T07:43:50.539Z,102246.84
2023-04-02T07:46:19.141Z,102249.91
2023-04-02T07:48:46.894Z,102259.16
2023-04-02T07:51:18.160Z,102257.06
2023-04-02T07:53:44.807Z,102258.38
2023-04-02T07:56:18.675Z,102265.22
2023-04-02T07:58:45.391Z,102275.44
2023-04-02T08:01:24.054Z,102270.66
2023-04-02T08:03:52.372Z,102273.84
2023-04-02T08:06:21.634Z,102284.06
2023-04-02T08:08:48.399Z,102283.63
2023-04-02T08:11:15.032Z,102281.06
2023-04-02T08:13:41.595Z,102297.69
2023-04-02T08:16:08.679Z,102296.88
2023-04-02T08:18:36.537Z,102312.91
2023-04-02T08:21:06.724Z,102311.81
2023-04-02T08:23:33.475Z,102320.03
2023-04-02T08:26:00.007Z,102326.38
2023-04-02T08:28:27.121Z,102321.03
2023-04-02T08:30:53.708Z,102327.38
2023-04-02T08:33:20.409Z,102323.13
2023-04-02T08:35:49.174Z,102336.72
2023-04-02T08:38:17.611Z,102343.31
2023-04-02T08:40:46.312Z,102345.50
2023-04-02T08:43:31.290Z,102340.63
2023-04-02T08:46:09.144Z,102357.22
2023-04-02T08:48:40.122Z,102358.81
2023-04-02T08:51:16.252Z,102364.91
2023-04-02T08:53:42.902Z,102366.50
2023-04-02T08:56:18.228Z,102375.28
2023-04-02T08:59:05.414Z,102379.69
2023-04-02T09:01:51.802Z,102374.19
2023-04-02T09:04:21.482Z,102392.03
2023-04-02T09:06:49.705Z,102386.91
2023-04-02T09:09:17.238Z,102403.28
2023-04-02T09:12:00.755Z,102406.69
2023-04-02T09:14:41.863Z,102409.25
2023-04-02T09:17:20.269Z,102417.31
2023-04-02T09:20:23.794Z,102416.81
2023-04-02T09:22:51.860Z,102415.59
2023-04-02T09:25:25.509Z,102420.50
2023-04-02T09:27:53.342Z,102420.47
2023-04-02T09:30:31.918Z,102424.63
2023-04-02T09:33:07.583Z,102428.91
2023-04-02T09:35:55.867Z,102430.38
2023-04-02T09:38:30.807Z,102426.28
2023-04-02T09:41:06.535Z,102426.97
2023-04-02T09:43:38.473Z,102435.63
2023-04-02T09:46:27.101Z,102431.16
2023-04-02T09:48:58.379Z,102431.75
2023-04-02T09:51:27.644Z,102434.59
2023-04-02T09:54:03.181Z,102442.06
2023-04-02T09:56:37.311Z,102445.59
2023-04-02T09:59:05.495Z,102438.38
2023-04-02T10:01:44.949Z,102448.44
2023-04-02T10:04:35.372Z,102446.72
2023-04-02T10:07:03.156Z,102445.75
2023-04-02T10:09:31.056Z,102448.28
2023-04-02T10:11:59.533Z,102450.13
2023-04-02T10:14:34.311Z,102450.00
2023-04-02T10:17:13.340Z,102459.78
2023-04-02T10:19:49.395Z,102460.06
2023-04-02T10:22:18.503Z,102466.47
2023-04-02T10:24:45.053Z,102476.63
2023-04-02T10:27:34.264Z,102470.66
2023-04-02T10:30:07.393Z,102480.56
2023-04-02T10:32:49.047Z,102480.09
2023-04-02T10:35:35.084Z,102480.81
2023-04-02T10:38:24.767Z,102485.09
2023-04-02T10:41:00.869Z,102492.03
2023-04-02T10:43:36.473Z,102492.19
2023-04-02T10:46:09.111Z,102497.56
2023-04-02T10:49:04.505Z,102494.72
2023-04-02T10:51:50.503Z,102500.72
2023-04-02T10:54:35.655Z,102507.94
2023-04-02T10:57:24.043Z,102508.69
2023-04-02T11:00:05.293Z,102514.41
2023-04-02T11:02:53.042Z,102504.44
2023-04-02T11:05:19.626Z,102511.41
2023-04-02T11:07:53.788Z,102506.97
2023-04-02T11:10:21.621Z,102513.28
2023-04-02T11:13:13.313Z,102507.25
2023-04-02T11:15:40.447Z,102509.16
2023-04-02T11:18:07.038Z,102516.69
2023-04-02T11:20:48.601Z,102521.84
2023-04-02T11:23:18.726Z,102530.38
2023-04-02T11:25:46.590Z,102530.97
2023-04-02T11:28:30.794Z,102539.78
2023-04-02T11:30:58.122Z,102532.16
2023-04-02T11:33:45.575Z,102541.09
2023-04-02T11:36:55.065Z,102544.38
2023-04-02T11:39:49.653Z,102548.66
2023-04-02T11:42:19.183Z,102548.38
2023-04-02T11:44:45.953Z,102550.22
2023-04-02T11:47:19.056Z,102553.78
2023-04-02T11:49:54.634Z,102567.13
2023-04-02T11:52:34.792Z,102564.19
2023-04-02T11:55:25.117Z,102571.13
2023-04-02T11:57:57.802Z,102555.69
2023-04-02T12:00:30.052Z,102570.03
2023-04-02T12:03:32.125Z,102566.19
2023-04-02T12:06:13.358Z,102574.63
2023-04-02T12:08:57.229Z,102581.38
2023-04-02T12:11:36.608Z,102574.72
2023-04-02T12:14:27.830Z,102563.38
2023-04-02T12:16:54.716Z,102561.97
2023-04-02T12:19:22.873Z,102561.59
2023-04-02T12:21:53.024Z,102572.09
2023-04-02T12:24:24.624Z,102577.97
2023-04-02T12:27:17.852Z,102581.38
2023-04-02T12:29:44.514Z,102576.41
2023-04-02T12:32:23.841Z,102579.84
2023-04-02T12:34:52.440Z,102584.97
2023-04-02T12:37:27.738Z,102587.53
2023-04-02T12:39:57.297Z,102576.59
2023-04-02T12:42:33.081Z,102580.16
2023-04-02T12:45:00.952Z,102589.97
2023-04-02T12:47:28.760Z,102585.41
2023-04-02T12:49:57.440Z,102593.66
2023-04-02T12:52:28.758Z,102593.66
2023-04-02T12:55:01.200Z,102596.47
2023-04-02T12:57:27.848Z,102596.47
2023-04-02T13:00:00.344Z,102589.38
2023-04-02T13:02:33.066Z,102603.13
2023-04-02T13:05:01.832Z,102597.75
2023-04-02T13:07:31.400Z,102601.69
2023-04-02T13:10:26.001Z,102596.56
2023-04-02T13:13:01.654Z,102600.41
2023-04-02T13:15:31.522Z,102604.94
2023-04-02T13:18:13.283Z,102612.56
2023-04-02T13:20:41.447Z,102607.31
2023-04-02T13:23:34.829Z,102605.03
2023-04-02T13:26:19.045Z,102607.00
2023-04-02T13:29:01.968Z,102603.59
2023-04-02T13:31:30.427Z,102613.66
2023-04-02T13:33:57.934Z,102608.41
2023-04-02T13:36:24.774Z,102611.25
2023-04-02T13:38:51.765Z,102608.66
2023-04-02T13:41:27.381Z,102618.72
2023-04-02T13:43:55.487Z,102622.13
2023-04-02T13:46:25.271Z,102624.13
2023-04-02T13:48:53.622Z,102624.97
2023-04-02T13:51:24.191Z,102630.38
2023-04-02T13:53:56.829Z,102627.69
2023-04-02T13:56:24.688Z,102630.38
2023-04-02T13:58:51.846Z,102637.88
2023-04-02T14:01:20.734Z,102645.38
2023-04-02T14:03:47.322Z,102641.06
2023-04-02T14:07:01.490Z,102638.03
2023-04-02T14:09:47.919Z,102638.31
2023-04-02T14:12:24.719Z,102630.47
2023-04-02T14:15:00.609Z,102630.72
2023-04-02T14:17:35.908Z,102631.00
2023-04-02T14:20:13.997Z,102641.19
2023-04-02T14:22:52.536Z,102637.75
2023-04-02T14:25:33.703Z,102643.44
2023-04-02T14:28:26.802Z,102653.47
2023-04-02T14:31:10.629Z,102659.00
2023-04-02T14:34:01.898Z,102656.56
2023-04-02T14:36:42.184Z,102653.00
2023-04-02T14:39:32.383Z,102665.75
2023-04-02T14:42:10.159Z,102664.91
2023-04-02T14:44:43.207Z,102668.72
2023-04-02T14:47:33.524Z,102672.53
2023-04-02T14:50:10.942Z,102670.81
2023-04-02T14:52:39.806Z,102679.00
2023-04-02T14:55:18.049Z,102679.16
2023-04-02T14:57:51.894Z,102674.75
2023-04-02T15:00:51.735Z,102671.31
2023-04-02T15:03:40.949Z,102681.38
2023-04-02T15:06:12.001Z,102676.00
2023-04-02T15:09:17.844Z,102673.53
2023-04-02T15:12:01.438Z,102678.06
2023-04-02T15:14:34.452Z,102679.03
2023-04-02T15:17:01.081Z,102687.13
2023-04-02T15:19:27.573Z,102685.56
2023-04-02T15:22:09.792Z,102693.75
2023-04-02T15:24:56.098Z,102692.19
2023-04-02T15:27:50.088Z,102693.03
2023-04-02T15:30:27.671Z,102690.19
2023-04-02T15:33:08.252Z,102695.34
2023-04-02T15:35:52.782Z,102688.72
2023-04-02T15:38:24.730Z,102692.72
2023-04-02T15:40:58.696Z,102706.56
2023-04-02T15:43:44.981Z,102694.53
2023-04-02T15:46:36.050Z,102698.69
2023-04-02T15:49:17.458Z,102708.97
2023-04-02T15:52:01.429Z,102702.22
2023-04-02T15:54:36.842Z,102700.13
2023-04-02T15:57:41.761Z,102712.22
2023-04-02T16:00:30.506Z,102709.25
2023-04-02T16:03:12.520Z,102709.88
2023-04-02T16:05:57.438Z,102715.41
2023-04-02T16:08:56.940Z,102719.06
2023-04-02T16:11:25.840Z,102721.16
2023-04-02T16:14:00.984Z,102724.13
2023-04-02T16:16:33.934Z,102724.38
2023-04-02T16:19:22.815Z,102730.03
2023-04-02T16:21:49.362Z,102732.00
2023-04-02T16:24:15.950Z,102735.81
2023-04-02T16:26:57.661Z,102736.19
2023-04-02T16:29:54.657Z,102737.44
2023-04-02T16:32:45.132Z,102738.66
2023-04-02T16:35:41.110Z,102745.28
2023-04-02T16:38:37.470Z,102744.56
2023-04-02T16:41:38.518Z,102749.47
2023-04-02T16:44:08.065Z,102758.53
2023-04-02T16:47:23.957Z,102750.94
2023-04-02T16:50:17.626Z,102762.72
2023-04-02T16:52:52.951Z,102760.25
2023-04-02T16:55:34.697Z,102769.56
2023-04-02T16:58:34.586Z,102775.47
2023-04-02T17:01:11.678Z,102782.69
2023-04-02T17:03:56.858Z,102780.34
2023-04-02T17:06:26.376Z,102791.41
2023-04-02T17:09:21.936Z,102788.06
2023-04-02T17:11:53.554Z,102800.44
2023-04-02T17:14:25.107Z,102797.50
2023-04-02T17:16:57.368Z,102805.81
2023-04-02T17:19:26.744Z,102805.34
2023-04-02T17:21:58.548Z,102811.84
2023-04-02T17:24:33.434Z,102814.75
2023-04-02T17:27:06.128Z,102826.53
2023-04-02T17:29:39.175Z,102820.38
2023-04-02T17:32:16.898Z,102821.47
2023-04-02T17:34:43.510Z,102830.75
2023-04-02T17:37:27.471Z,102833.09
2023-04-02T17:40:09.035Z,102839.06
2023-04-02T17:43:10.833Z,102850.38
2023-04-02T17:45:55.457Z,102844.97
2023-04-02T17:48:28.086Z,102850.38
2023-04-02T17:51:21.731Z,102851.34
2023-04-02T17:54:20.413Z,102850.59
2023-04-02T17:57:01.153Z,102862.22
2023-04-02T17:59:48.853Z,102858.94
2023-04-02T18:02:39.243Z,102867.28
2023-04-02T18:05:11.922Z,102869.13
2023-04-02T18:08:12.450Z,102874.53
2023-04-02T18:11:01.636Z,102878.06
2023-04-02T18:13:42.510Z,102883.72
2023-04-02T18:16:26.554Z,102880.16
2023-04-02T18:19:03.545Z,102880.16
2023-04-02T18:21:43.463Z,102888.34
2023-04-02T18:24:43.621Z,102893.03
2023-04-02T18:27:30.266Z,102893.28
2023-04-02T18:30:13.781Z,102906.03
2023-04-02T18:33:11.026Z,102905.44
2023-04-02T18:35:37.548Z,102910.81
2023-04-02T18:38:20.761Z,102913.03
2023-04-02T18:41:04.226Z,102923.81
2023-04-02T18:43:49.382Z,102933.72
2023-04-02T18:46:48.999Z,102936.16
2023-04-02T18:49:34.146Z,102941.56
2023-04-02T18:52:03.674Z,102946.00
2023-04-02T18:54:30.446Z,102959.72
2023-04-02T18:56:57.079Z,102955.66
2023-04-02T18:59:33.133Z,102955.28
2023-04-02T19:02:21.517Z,102961.16
2023-04-02T19:04:58.073Z,102967.03
2023-04-02T19:07:28.800Z,102967.25
2023-04-02T19:09:59.182Z,102975.72
2023-04-02T19:12:25.765Z,102975.94
2023-04-02T19:14:52.802Z,102972.63
2023-04-02T19:17:36.963Z,102973.84
2023-04-02T19:20:31.383Z,102983.00
2023-04-02T19:23:13.847Z,102981.91
2023-04-02T19:26:03.442Z,102985.56
2023-04-02T19:28:39.675Z,102991.69
2023-04-02T19:31:29.074Z,102995.38
2023-04-02T19:34:39.081Z,102986.53
2023-04-02T19:37:19.387Z,102992.16
2023-04-02T19:40:00.065Z,102996.19
2023-04-02T19:42:48.144Z,102996.50
2023-04-02T19:45:35.835Z,103000.66
2023-04-02T19:48:10.235Z,103005.19
2023-04-02T19:50:37.310Z,103010.91
2023-04-02T19:53:03.901Z,103012.97
2023-04-02T19:55:30.512Z,103016.00
2023-04-02T19:58:08.413Z,103020.88
2023-04-02T20:00:47.934Z,103021.09
2023-04-02T20:03:14.538Z,103019.75
2023-04-02T20:05:41.083Z,103024.50
2023-04-02T20:08:07.592Z,103030.31
2023-04-02T20:10:35.035Z,103023.44
2023-04-02T20:13:01.738Z,103036.38
2023-04-02T20:15:28.285Z,103032.09
2023-04-02T20:17:54.855Z,103035.97
2023-04-02T20:20:21.487Z,103047.03
2023-04-02T20:22:48.402Z,103047.28
2023-04-02T20:25:16.029Z,103045.78
2023-04-02T20:27:42.613Z,103055.13
2023-04-02T20:30:09.390Z,103048.34
2023-04-02T20:32:37.805Z,103057.50
2023-04-02T20:35:05.123Z,103057.81
2023-04-02T20:37:31.645Z,103062.56
2023-04-02T20:39:58.961Z,103061.06
2023-04-02T20:42:25.989Z,103063.22
2023-04-02T20:44:52.622Z,103070.63
2023-04-02T20:47:19.716Z,103075.34
2023-04-02T20:49:46.426Z,103081.91
2023-04-02T20:52:12.918Z,103092.03
2023-04-02T20:54:39.456Z,103088.69
2023-04-02T20:57:06.268Z,103088.03
2023-04-02T20:59:32.950Z,103094.50
2023-04-02T21:01:59.449Z,103098.38
2023-04-02T21:04:27.956Z,103101.13
2023-04-02T21:06:57.040Z,103111.16
2023-04-02T21:09:24.043Z,103103.28
2023-04-02T21:11:50.790Z,103110.59
2023-04-02T21:14:18.031Z,103110.81
2023-04-02T21:16:45.072Z,103111.88
2023-04-02T21:19:11.804Z,103119.19
2023-04-02T21:21:39.636Z,103121.22
2023-04-02T21:24:08.150Z,103125.81
2023-04-02T21:26:38.352Z,103126.78
2023-04-02T21:29:06.091Z,103128.72
2023-04-02T21:31:38.442Z,103138.69
2023-04-02T21:34:06.527Z,103129.91
2023-04-02T21:36:35.476Z,103134.50
2023-04-02T21:39:11.110Z,103131.03
2023-04-02T21:41:40.268Z,103126.59
2023-04-02T21:44:09.410Z,103126.84
2023-04-02T21:46:38.596Z,103125.09
2023-04-02T21:49:07.909Z,103125.28
2023-04-02T21:51:36.370Z,103127.22
2023-04-02T21:54:03.762Z,103131.75
2023-04-02T21:56:33.109Z,103133.66
2023-04-02T21:59:01.874Z,103124.84
2023-04-02T22:01:33.134Z,103133.09
2023-04-02T22:04:02.072Z,103135.91
2023-04-02T22:06:30.914Z,103131.47
2023-04-02T22:09:00.587Z,103133.41
2023-04-02T22:11:29.959Z,103138.00
2023-04-02T22:13:57.288Z,103138.13
2023-04-02T22:16:27.615Z,103135.53
2023-04-02T22:18:56.228Z,103141.84
2023-04-02T22:21:23.311Z,103132.19
2023-04-02T22:23:50.317Z,103135.94
2023-04-02T22:26:19.114Z,103135.19
2023-04-02T22:28:46.114Z,103135.25
2023-04-02T22:31:18.734Z,103132.69
2023-04-02T22:33:46.726Z,103141.72
2023-04-02T22:36:14.407Z,103141.03
2023-04-02T22:38:41.138Z,103141.13
2023-04-02T22:41:12.971Z,103144.03
2023-04-02T22:43:41.019Z,103138.75
2023-04-02T22:46:08.860Z,103151.31
2023-04-02T22:48:36.160Z,103146.91
2023-04-02T22:51:03.329Z,103157.72
2023-04-02T22:53:29.949Z,103155.25
2023-04-02T22:56:03.134Z,103152.66
2023-04-02T22:58:29.803Z,103151.91
2023-04-02T23:00:56.342Z,103155.56
2023-04-02T23:03:22.832Z,103150.25
2023-04-02T23:06:00.935Z,103146.81
2023-04-02T23:08:27.741Z,103154.97
2023-04-02T23:11:06.621Z,103149.81
2023-04-02T23:13:34.184Z,103155.94
2023-04-02T23:16:02.401Z,103153.44
2023-04-02T23:18:31.434Z,103160.72
2023-04-02T23:20:58.300Z,103151.81
2023-04-02T23:23:25.965Z,103159.00
2023-04-02T23:26:06.353Z,103156.50
2023-04-02T23:28:33.046Z,103155.66
2023-04-02T23:31:02.256Z,103158.34
2023-04-02T23:33:28.983Z,103161.22
2023-04-02T23:35:55.518Z,103166.66
2023-04-02T23:38:22.060Z,103164.94
2023-04-02T23:40:49.148Z,103167.72
2023-04-02T23:43:15.717Z,103164.19
2023-04-02T23:45:47.760Z,103166.19
2023-04-02T23:48:14.611Z,103169.72
2023-04-02T23:50:41.248Z,103175.19
2023-04-02T23:53:07.830Z,103175.28
2023-04-02T23:55:34.323Z,103176.34
2023-04-02T23:58:01.007Z,103173.75
